Time;durP1;ratioP1;P1;durP2;ratioP2;P2;SDS_P1;SDS_P2;PMS_P1;PMS_P2;Temp;Humidity;BMP_temperature;BMP_pressure;BME280_temperature;BME280_humidity;BME280_pressure;Samples;Min_cycle;Max_cycle;Signal;HPM_P1;HPM_P2
2021/10/10 00:03:47;;;;;;;;;;;6.90;99.90;;;;;;20832048;28;20306;-78
2021/10/10 00:13:48;;;;;;;;;;;6.50;99.90;;;;;;20834948;28;19917;-79
2021/10/10 00:23:48;;;;;;;;;;;6.50;99.90;;;;;;20833561;28;20759;-79
2021/10/10 00:33:50;;;;;;;;;;;6.70;99.90;;;;;;20843354;28;19944;-79
2021/10/10 00:43:50;;;;;;;;;;;6.40;99.90;;;;;;20916137;28;19913;-77
2021/10/10 00:53:51;;;;;;;;;;;6.00;99.90;;;;;;20904782;22;20043;-76
2021/10/10 01:03:52;;;;;;;;;;;6.10;99.90;;;;;;20792728;28;20302;-76
2021/10/10 01:13:53;;;;;;;;;;;5.90;99.90;;;;;;20809919;28;19925;-76
2021/10/10 01:23:53;;;;;;;;;;;5.80;99.90;;;;;;20801463;28;19982;-76
2021/10/10 01:33:55;;;;;;;;;;;5.70;99.90;;;;;;20835096;28;19951;-78
2021/10/10 01:43:56;;;;;;;;;;;5.70;99.90;;;;;;20796196;28;20387;-77
2021/10/10 01:53:58;;;;;;;;;;;5.40;99.90;;;;;;20770682;28;19912;-78
2021/10/10 02:03:59;;;;;;;;;;;5.50;99.90;;;;;;20799225;28;19916;-78
2021/10/10 02:13:59;;;;;;;;;;;5.60;99.90;;;;;;20825599;28;19913;-78
2021/10/10 02:24:00;;;;;;;;;;;5.40;99.90;;;;;;20825267;28;19909;-77
2021/10/10 02:34:01;;;;;;;;;;;5.10;99.90;;;;;;20824801;28;19913;-78
2021/10/10 02:44:01;;;;;;;;;;;5.10;99.90;;;;;;20806961;28;19913;-78
2021/10/10 02:54:02;;;;;;;;;;;5.00;99.90;;;;;;20824242;28;20059;-77
2021/10/10 03:04:04;;;;;;;;;;;4.90;99.90;;;;;;20839617;28;19936;-77
2021/10/10 03:14:04;;;;;;;;;;;4.70;99.90;;;;;;20838940;28;19913;-78
2021/10/10 03:24:06;;;;;;;;;;;4.80;99.90;;;;;;20838150;28;19909;-78
2021/10/10 03:34:07;;;;;;;;;;;4.60;99.90;;;;;;20837560;28;20283;-77
2021/10/10 03:44:07;;;;;;;;;;;4.50;99.90;;;;;;20818985;28;19909;-77
2021/10/10 04:04:12;;;;;;;;;;;4.30;99.90;;;;;;20835223;28;19909;-78
2021/10/10 04:14:12;;;;;;;;;;;4.30;99.90;;;;;;20831919;28;19913;-77
2021/10/10 04:24:13;;;;;;;;;;;4.30;99.90;;;;;;20833436;28;19913;-78
2021/10/10 04:34:14;;;;;;;;;;;4.10;99.90;;;;;;20832815;28;19924;-78
2021/10/10 04:44:15;;;;;;;;;;;4.00;99.90;;;;;;20830820;28;20438;-78
2021/10/10 04:54:16;;;;;;;;;;;3.80;99.90;;;;;;20829963;28;19964;-78
2021/10/10 05:04:16;;;;;;;;;;;4.00;99.90;;;;;;20812812;28;20282;-78
2021/10/10 05:14:17;;;;;;;;;;;3.90;99.90;;;;;;20829691;28;20408;-78
2021/10/10 05:24:18;;;;;;;;;;;3.80;99.90;;;;;;20821475;28;19951;-78
2021/10/10 05:34:19;;;;;;;;;;;4.00;99.90;;;;;;20801148;28;20357;-78
2021/10/10 05:44:19;;;;;;;;;;;4.10;99.90;;;;;;20757328;28;19914;-78
2021/10/10 05:54:22;;;;;;;;;;;3.70;99.90;;;;;;20744986;28;19921;-78
2021/10/10 06:04:22;;;;;;;;;;;3.40;99.90;;;;;;20744569;28;20319;-77
2021/10/10 06:14:23;;;;;;;;;;;3.60;99.90;;;;;;20744164;28;19999;-77
2021/10/10 06:24:24;;;;;;;;;;;4.00;99.90;;;;;;20743850;28;19913;-78
2021/10/10 06:34:25;;;;;;;;;;;4.30;99.90;;;;;;20735216;28;19959;-79
2021/10/10 06:44:26;;;;;;;;;;;5.30;99.90;;;;;;20789136;28;19909;-78
2021/10/10 06:54:26;;;;;;;;;;;6.20;99.90;;;;;;20803817;22;19937;-73
2021/10/10 07:04:27;;;;;;;;;;;7.50;99.90;;;;;;20839807;28;19977;-72
2021/10/10 07:14:30;;;;;;;;;;;8.60;99.90;;;;;;20838584;28;19959;-73
2021/10/10 07:25:13;;;;;;;;;;;9.20;99.90;;;;;;20798866;28;19916;-73
2021/10/10 07:34:54;;;;;;;;;;;9.90;99.90;;;;;;20827929;28;19948;-73
2021/10/10 07:45:04;;;;;;;;;;;9.30;99.90;;;;;;20835934;28;19955;-73
2021/10/10 07:55:05;;;;;;;;;;;9.20;99.90;;;;;;20832833;28;20016;-73
2021/10/10 08:05:07;;;;;;;;;;;9.70;99.90;;;;;;20835152;28;19944;-73
2021/10/10 08:15:08;;;;;;;;;;;10.90;99.90;;;;;;20834293;28;19920;-72
2021/10/10 08:25:11;;;;;;;;;;;11.50;99.90;;;;;;20833746;28;19911;-73
2021/10/10 08:35:12;;;;;;;;;;;12.60;99.90;;;;;;20832631;28;20275;-73
2021/10/10 08:45:18;;;;;;;;;;;13.10;99.90;;;;;;20831838;28;20015;-73
2021/10/10 08:55:19;;;;;;;;;;;13.30;99.90;;;;;;20830634;28;19955;-73
2021/10/10 09:05:20;;;;;;;;;;;14.10;99.90;;;;;;20830558;28;20363;-73
2021/10/10 09:15:21;;;;;;;;;;;13.70;99.90;;;;;;20829738;28;20409;-73
2021/10/10 09:25:22;;;;;;;;;;;14.10;99.90;;;;;;20828940;28;20422;-73
2021/10/10 09:35:24;;;;;;;;;;;15.20;99.90;;;;;;20828293;28;19913;-73
2021/10/10 09:45:39;;;;;;;;;;;15.30;99.90;;;;;;20827457;28;19916;-73
2021/10/10 09:55:57;;;;;;;;;;;15.60;99.90;;;;;;20826631;28;19913;-73
2021/10/10 10:06:05;;;;;;;;;;;14.40;99.90;;;;;;20825463;28;19908;-73
2021/10/10 10:16:06;;;;;;;;;;;15.50;99.90;;;;;;20824669;28;19966;-73
2021/10/10 10:26:07;;;;;;;;;;;16.40;99.90;;;;;;20825062;28;20421;-73
2021/10/10 10:36:08;;;;;;;;;;;17.50;99.90;;;;;;20824580;28;20001;-74
2021/10/10 10:46:09;;;;;;;;;;;17.30;99.90;;;;;;20824590;28;19940;-75
2021/10/10 10:56:23;;;;;;;;;;;17.90;99.90;;;;;;20824042;28;19913;-74
2021/10/10 11:06:24;;;;;;;;;;;17.70;99.90;;;;;;20822664;28;19909;-74
2021/10/10 11:16:25;;;;;;;;;;;18.00;99.90;;;;;;20825265;28;20397;-74
2021/10/10 11:26:27;;;;;;;;;;;17.70;99.90;;;;;;20838301;28;19909;-75
2021/10/10 11:36:33;;;;;;;;;;;18.50;99.90;;;;;;20836579;28;20426;-74
2021/10/10 11:46:51;;;;;;;;;;;18.60;99.90;;;;;;20783996;28;19913;-74
2021/10/10 11:56:57;;;;;;;;;;;18.40;99.90;;;;;;20753292;28;19983;-74
2021/10/10 12:06:57;;;;;;;;;;;17.90;99.90;;;;;;20751464;28;19991;-75
2021/10/10 12:16:58;;;;;;;;;;;18.10;99.90;;;;;;20751926;28;19951;-75
2021/10/10 12:27:02;;;;;;;;;;;18.90;99.90;;;;;;20817906;28;19909;-74
2021/10/10 12:37:02;;;;;;;;;;;18.10;99.90;;;;;;20799854;28;20315;-75
2021/10/10 12:47:03;;;;;;;;;;;17.80;99.90;;;;;;20804472;28;19913;-76
2021/10/10 12:57:07;;;;;;;;;;;19.00;99.90;;;;;;20803866;28;19921;-73
2021/10/10 13:07:07;;;;;;;;;;;19.20;99.90;;;;;;20790562;28;19992;-73
2021/10/10 13:17:08;;;;;;;;;;;19.80;99.90;;;;;;20826810;28;20447;-73
2021/10/10 13:27:09;;;;;;;;;;;19.10;99.90;;;;;;20891011;28;19912;-73
2021/10/10 13:37:09;;;;;;;;;;;18.40;99.90;;;;;;20890085;28;20410;-73
2021/10/10 13:47:10;;;;;;;;;;;18.70;99.90;;;;;;20888847;28;19931;-73
2021/10/10 13:57:11;;;;;;;;;;;19.90;99.90;;;;;;20887724;28;19924;-74
2021/10/10 14:07:12;;;;;;;;;;;18.40;99.90;;;;;;20871616;28;20743;-73
2021/10/10 14:17:13;;;;;;;;;;;19.20;99.90;;;;;;20886462;28;19938;-73
2021/10/10 14:27:13;;;;;;;;;;;19.50;99.90;;;;;;20887309;28;20020;-74
2021/10/10 14:37:14;;;;;;;;;;;18.30;99.90;;;;;;20887106;28;19921;-73
2021/10/10 14:47:36;;;;;;;;;;;18.80;99.90;;;;;;20886505;28;20392;-72
2021/10/10 14:57:39;;;;;;;;;;;19.00;99.90;;;;;;20897171;28;20004;-74
2021/10/10 15:07:40;;;;;;;;;;;18.50;99.90;;;;;;20817521;28;19913;-72
2021/10/10 15:17:41;;;;;;;;;;;18.30;99.90;;;;;;20776279;28;19918;-73
2021/10/10 15:27:41;;;;;;;;;;;17.30;99.90;;;;;;20774529;28;19921;-73
2021/10/10 15:37:42;;;;;;;;;;;17.20;99.90;;;;;;20775297;28;20310;-72
2021/10/10 15:47:43;;;;;;;;;;;16.70;99.90;;;;;;20785203;28;19916;-72
2021/10/10 15:57:44;;;;;;;;;;;15.40;99.90;;;;;;20806359;28;19920;-73
2021/10/10 16:07:45;;;;;;;;;;;15.10;99.90;;;;;;20848012;28;20028;-73
2021/10/10 16:17:46;;;;;;;;;;;14.80;99.90;;;;;;20815212;28;20408;-73
2021/10/10 16:27:47;;;;;;;;;;;14.00;99.90;;;;;;20817673;28;19913;-72
2021/10/10 16:47:48;;;;;;;;;;;11.80;99.90;;;;;;20811286;28;19912;-73
2021/10/10 16:57:49;;;;;;;;;;;11.30;99.90;;;;;;20811608;28;19917;-72
2021/10/10 17:07:50;;;;;;;;;;;11.50;99.90;;;;;;20883322;28;20306;-72
2021/10/10 17:17:51;;;;;;;;;;;12.00;99.90;;;;;;20906826;28;19923;-72
2021/10/10 17:27:51;;;;;;;;;;;11.50;99.90;;;;;;20847584;28;19996;-73
2021/10/10 17:37:52;;;;;;;;;;;11.30;99.90;;;;;;20830631;28;20459;-73
2021/10/10 17:47:53;;;;;;;;;;;10.80;99.90;;;;;;20860584;28;19959;-73
2021/10/10 17:58:01;;;;;;;;;;;10.10;99.90;;;;;;20888695;28;19962;-73
2021/10/10 18:18:21;;;;;;;;;;;9.30;99.90;;;;;;20825706;28;19917;-73
2021/10/10 18:28:22;;;;;;;;;;;8.70;99.90;;;;;;20805909;28;19975;-72
2021/10/10 18:38:23;;;;;;;;;;;8.60;99.90;;;;;;20806059;28;19996;-72
2021/10/10 18:48:23;;;;;;;;;;;8.70;99.90;;;;;;20805100;28;19996;-73
2021/10/10 18:58:24;;;;;;;;;;;8.60;99.90;;;;;;20877695;23;19931;-77
2021/10/10 19:08:25;;;;;;;;;;;8.40;99.90;;;;;;20907788;28;19926;-77
2021/10/10 19:18:27;;;;;;;;;;;8.40;99.90;;;;;;20968226;28;19920;-79
2021/10/10 19:28:27;;;;;;;;;;;8.50;99.90;;;;;;20967840;28;20377;-77
2021/10/10 19:38:28;;;;;;;;;;;8.20;99.90;;;;;;20971109;28;19920;-78
2021/10/10 19:48:29;;;;;;;;;;;7.70;99.90;;;;;;21007267;28;19968;-79
2021/10/10 19:58:29;;;;;;;;;;;7.70;99.90;;;;;;20998996;28;19919;-80
2021/10/10 20:08:30;;;;;;;;;;;7.40;99.90;;;;;;20994093;28;19954;-79
2021/10/10 20:18:31;;;;;;;;;;;7.10;99.90;;;;;;20984665;28;20007;-79
2021/10/10 20:28:33;;;;;;;;;;;7.20;99.90;;;;;;20994493;28;19915;-79
2021/10/10 20:38:34;;;;;;;;;;;7.10;99.90;;;;;;20985017;28;19920;-79
2021/10/10 20:48:35;;;;;;;;;;;7.30;99.90;;;;;;21001660;28;20381;-79
2021/10/10 20:58:36;;;;;;;;;;;7.10;99.90;;;;;;20979607;28;20005;-79
2021/10/10 21:08:36;;;;;;;;;;;7.20;99.90;;;;;;20973725;28;19909;-79
2021/10/10 21:18:37;;;;;;;;;;;5.90;99.90;;;;;;20969391;28;19919;-78
2021/10/10 21:29:13;;;;;;;;;;;6.20;99.90;;;;;;20968592;28;19908;-78
2021/10/10 21:39:05;;;;;;;;;;;6.40;99.90;;;;;;20959699;28;19912;-80
2021/10/10 21:49:06;;;;;;;;;;;5.70;99.90;;;;;;20937707;28;19908;-80
2021/10/10 21:59:06;;;;;;;;;;;5.60;99.90;;;;;;20928922;28;19913;-80
2021/10/10 22:09:07;;;;;;;;;;;5.60;99.90;;;;;;20929327;28;19959;-80
2021/10/10 22:19:08;;;;;;;;;;;5.20;99.90;;;;;;20929605;28;19924;-80
2021/10/10 22:39:28;;;;;;;;;;;4.50;99.90;;;;;;20928532;28;19912;-79
2021/10/10 22:49:29;;;;;;;;;;;5.00;99.90;;;;;;20927741;28;20362;-78
2021/10/10 22:59:29;;;;;;;;;;;5.40;99.90;;;;;;20941981;28;19919;-79
2021/10/10 23:09:30;;;;;;;;;;;5.60;99.90;;;;;;20934233;28;20345;-80
2021/10/10 23:19:35;;;;;;;;;;;5.70;99.90;;;;;;20937544;28;20474;-79
2021/10/10 23:29:35;;;;;;;;;;;5.60;99.90;;;;;;20955339;28;19909;-79
2021/10/10 23:39:36;;;;;;;;;;;5.50;99.90;;;;;;20938607;28;19947;-80
2021/10/10 23:49:37;;;;;;;;;;;5.50;99.90;;;;;;20938794;28;19962;-78
2021/10/10 23:59:37;;;;;;;;;;;5.40;99.90;;;;;;20938511;28;20219;-79
